Terminal Aerodrome Forecast
Issued by NWS Northern Indiana

Home | Current Version | Previous Version | Text Only | Print | Product List | Glossary Off
Versions: 1 2 3 4 5 6 7 8 9 10 11 12

521
FTUS43 KIWX 180520
TAFFWA
TAF
KFWA 180520Z 1806/1906 24015G22KT P6SM FEW250 WS020/26045KT=

USA.gov is the U.S. government's official web portal to all federal, state and local government web resources and services.